Time;durP1;ratioP1;P1;durP2;ratioP2;P2;SDS_P1;SDS_P2;PMS_P1;PMS_P2;Temp;Humidity;BMP_temperature;BMP_pressure;BME280_temperature;BME280_humidity;BME280_pressure;Samples;Min_cycle;Max_cycle;Signal;HPM_P1;HPM_P2
2023/05/15 00:00:01;;;;;;;17.52;13.43;;;17.30;99.90;;;;;;5036479;28;20041;-77
2023/05/15 00:02:29;;;;;;;14.75;11.55;;;17.20;99.90;;;;;;5015823;28;20132;-76
2023/05/15 00:04:56;;;;;;;19.42;12.85;;;17.10;99.90;;;;;;5018133;28;20053;-76
2023/05/15 00:07:25;;;;;;;16.38;12.38;;;17.00;99.90;;;;;;5016094;28;20041;-76
2023/05/15 00:09:52;;;;;;;16.52;10.77;;;17.00;99.90;;;;;;5018729;28;20053;-76
2023/05/15 00:12:20;;;;;;;13.73;11.02;;;16.90;99.90;;;;;;5018054;28;20060;-77
2023/05/15 00:14:47;;;;;;;12.27;10.20;;;16.90;99.90;;;;;;5019716;28;20056;-78
2023/05/15 00:17:15;;;;;;;12.93;9.43;;;16.80;99.90;;;;;;5019791;28;20041;-76
2023/05/15 00:19:42;;;;;;;9.88;8.77;;;16.80;99.90;;;;;;5016420;28;20536;-77
2023/05/15 00:22:10;;;;;;;7.97;6.90;;;16.70;99.90;;;;;;5018495;28;20045;-74
2023/05/15 00:24:39;;;;;;;8.07;6.43;;;16.40;99.90;;;;;;5018815;28;20129;-75
2023/05/15 00:27:06;;;;;;;7.57;6.45;;;16.20;99.90;;;;;;5018184;28;20038;-76
2023/05/15 00:29:33;;;;;;;10.73;6.65;;;16.10;99.90;;;;;;5016276;28;20522;-76
2023/05/15 00:32:01;;;;;;;7.70;6.53;;;15.80;99.90;;;;;;5018073;28;20498;-77
2023/05/15 00:34:28;;;;;;;9.25;5.80;;;15.60;99.90;;;;;;5016604;28;20049;-76
2023/05/15 00:36:59;;;;;;;8.77;5.88;;;15.40;99.90;;;;;;5017017;28;20490;-76
2023/05/15 00:39:26;;;;;;;9.20;5.38;;;15.40;99.90;;;;;;5016478;28;20526;-78
2023/05/15 00:41:58;;;;;;;5.78;4.50;;;15.30;99.90;;;;;;5018175;28;20042;-77
2023/05/15 00:44:26;;;;;;;5.43;4.28;;;15.20;99.90;;;;;;5021808;28;20414;-77
2023/05/15 00:46:57;;;;;;;4.40;3.40;;;15.10;99.90;;;;;;5022383;28;20072;-77
2023/05/15 00:49:26;;;;;;;4.97;2.38;;;15.00;99.90;;;;;;5027961;28;20042;-77
2023/05/15 00:51:53;;;;;;;7.65;2.97;;;14.80;99.90;;;;;;5032988;28;20053;-77
2023/05/15 00:54:21;;;;;;;3.88;1.90;;;14.70;99.90;;;;;;5024832;28;20130;-78
2023/05/15 00:56:50;;;;;;;5.55;2.50;;;14.60;99.90;;;;;;5019864;28;20052;-77
2023/05/15 00:59:20;;;;;;;3.75;2.25;;;14.50;99.90;;;;;;5019765;28;20064;-76
2023/05/15 01:01:48;;;;;;;3.88;2.50;;;14.40;99.90;;;;;;5021709;28;20052;-76
2023/05/15 01:04:15;;;;;;;5.05;2.63;;;14.30;99.90;;;;;;5042533;28;20493;-77
2023/05/15 01:06:43;;;;;;;8.07;3.55;;;14.30;99.90;;;;;;5021326;28;20120;-78
2023/05/15 01:09:12;;;;;;;7.80;4.00;;;14.40;99.90;;;;;;5022781;28;20107;-78
2023/05/15 01:11:42;;;;;;;6.70;3.63;;;14.30;99.90;;;;;;5042082;28;20033;-77
2023/05/15 01:14:10;;;;;;;7.57;3.35;;;14.40;99.90;;;;;;5021705;28;20195;-78
2023/05/15 01:16:40;;;;;;;4.47;3.00;;;14.40;99.90;;;;;;5041457;28;20048;-77
2023/05/15 01:19:08;;;;;;;4.82;3.00;;;14.30;99.90;;;;;;5040341;28;20056;-77
2023/05/15 01:21:57;;;;;;;5.57;3.17;;;14.30;99.90;;;;;;5020678;28;20528;-76
2023/05/15 01:24:48;;;;;;;5.95;3.20;;;14.30;99.90;;;;;;5022017;28;20547;-77
2023/05/15 01:27:22;;;;;;;5.13;2.78;;;14.30;99.90;;;;;;5038654;28;20140;-77
2023/05/15 01:29:58;;;;;;;5.88;2.95;;;14.30;99.90;;;;;;5039469;28;20482;-78
2023/05/15 01:32:33;;;;;;;4.00;2.60;;;14.20;99.90;;;;;;5020430;28;20049;-76
2023/05/15 01:35:10;;;;;;;9.57;6.30;;;14.20;99.90;;;;;;5038366;28;20105;-77
2023/05/15 01:37:44;;;;;;;3.85;2.60;;;14.20;99.90;;;;;;5025418;28;20068;-77
2023/05/15 01:40:14;;;;;;;3.17;2.50;;;14.10;99.90;;;;;;5029777;28;20148;-77
2023/05/15 01:42:51;;;;;;;4.72;2.83;;;14.10;99.90;;;;;;5022094;28;20049;-78
2023/05/15 01:45:21;;;;;;;3.53;2.50;;;14.20;99.90;;;;;;5021605;28;20421;-78
2023/05/15 01:47:51;;;;;;;5.65;2.70;;;14.20;99.90;;;;;;5020807;28;20072;-76
2023/05/15 01:50:20;;;;;;;5.05;2.70;;;14.10;99.90;;;;;;5040161;28;20452;-77
2023/05/15 01:52:51;;;;;;;5.25;2.75;;;14.10;99.90;;;;;;5022332;28;20052;-74
2023/05/15 01:55:20;;;;;;;6.10;3.78;;;14.00;99.90;;;;;;5021047;28;20095;-75
2023/05/15 01:57:50;;;;;;;20.42;9.18;;;14.00;99.90;;;;;;5020751;28;20041;-75
2023/05/15 02:00:18;;;;;;;94.15;29.15;;;14.00;99.90;;;;;;5038551;28;20057;-75
2023/05/15 02:02:47;;;;;;;94.50;29.42;;;13.90;99.90;;;;;;5040154;28;20228;-77
2023/05/15 02:05:16;;;;;;;126.40;37.30;;;13.80;99.90;;;;;;5043378;28;20049;-77
2023/05/15 02:07:45;;;;;;;186.38;46.33;;;13.80;99.90;;;;;;5063849;28;20180;-76
2023/05/15 02:10:13;;;;;;;181.02;47.10;;;13.80;99.90;;;;;;5028715;28;20131;-75
2023/05/15 02:12:42;;;;;;;180.38;47.30;;;13.80;99.90;;;;;;5052611;28;20040;-75
2023/05/15 02:15:12;;;;;;;156.30;39.80;;;13.80;99.90;;;;;;5036871;28;20048;-78
2023/05/15 02:17:41;;;;;;;131.10;35.05;;;13.80;99.90;;;;;;5042658;28;20064;-76
2023/05/15 02:20:09;;;;;;;66.25;22.35;;;13.80;99.90;;;;;;5044926;28;20068;-77
2023/05/15 02:22:38;;;;;;;56.92;20.15;;;13.80;99.90;;;;;;5020818;28;20041;-76
2023/05/15 02:25:06;;;;;;;41.80;16.55;;;13.80;99.90;;;;;;5041833;28;20507;-76
2023/05/15 02:27:38;;;;;;;24.35;9.43;;;13.80;99.90;;;;;;5039718;28;20052;-76
2023/05/15 02:30:21;;;;;;;21.70;9.05;;;13.70;99.90;;;;;;5038020;28;20044;-76
2023/05/15 02:32:56;;;;;;;18.15;8.07;;;13.70;99.90;;;;;;5036005;28;20526;-76
2023/05/15 02:35:31;;;;;;;21.17;8.35;;;13.70;99.90;;;;;;5039357;28;20041;-75
2023/05/15 02:38:07;;;;;;;15.90;7.90;;;13.70;99.90;;;;;;5019346;28;20054;-78
2023/05/15 02:40:37;;;;;;;20.02;8.77;;;13.80;99.90;;;;;;5021285;28;20034;-77
2023/05/15 02:43:07;;;;;;;14.48;7.35;;;13.80;99.90;;;;;;5038172;28;20091;-74
2023/05/15 02:45:37;;;;;;;8.95;4.13;;;13.80;99.90;;;;;;5021168;28;20124;-77
2023/05/15 02:48:07;;;;;;;10.90;4.68;;;13.80;99.90;;;;;;5020845;28;20745;-78
2023/05/15 02:50:35;;;;;;;11.68;5.10;;;13.80;99.90;;;;;;5038514;28;20460;-77
2023/05/15 02:53:04;;;;;;;14.57;6.38;;;13.80;99.90;;;;;;5038654;28;20059;-75
2023/05/15 02:55:31;;;;;;;12.45;5.38;;;13.80;99.90;;;;;;5036006;28;20048;-77
2023/05/15 02:57:59;;;;;;;10.55;4.13;;;13.80;99.90;;;;;;5020649;28;20049;-77
2023/05/15 03:00:27;;;;;;;10.38;4.72;;;13.80;99.90;;;;;;5038116;28;20044;-77
2023/05/15 03:02:55;;;;;;;12.80;6.10;;;13.70;99.90;;;;;;5016559;28;20053;-75
2023/05/15 03:05:23;;;;;;;25.80;9.48;;;13.70;99.90;;;;;;5017893;28;20120;-78
2023/05/15 03:07:50;;;;;;;17.92;7.50;;;13.70;99.90;;;;;;5016944;28;20072;-75
2023/05/15 03:10:20;;;;;;;18.58;8.07;;;13.70;99.90;;;;;;5017196;28;20038;-77
2023/05/15 03:12:47;;;;;;;19.50;8.50;;;13.70;99.90;;;;;;5017741;28;20125;-75
2023/05/15 03:15:14;;;;;;;17.88;7.15;;;13.70;99.90;;;;;;5017535;28;20053;-76
2023/05/15 03:17:42;;;;;;;18.92;7.50;;;13.70;99.90;;;;;;5019258;28;20045;-75
2023/05/15 03:20:12;;;;;;;19.95;7.30;;;13.70;99.90;;;;;;5016094;28;20128;-75
2023/05/15 03:22:40;;;;;;;15.15;6.75;;;13.70;99.90;;;;;;5016475;28;20402;-76
2023/05/15 03:25:10;;;;;;;19.20;7.40;;;13.70;99.90;;;;;;5018135;28;20531;-74
2023/05/15 03:27:38;;;;;;;20.60;8.07;;;13.70;99.90;;;;;;5017036;28;20049;-77
2023/05/15 03:30:07;;;;;;;22.85;9.88;;;13.70;99.90;;;;;;5015934;28;20045;-75
2023/05/15 03:32:34;;;;;;;28.17;10.02;;;13.70;99.90;;;;;;5017326;28;20583;-75
2023/05/15 03:35:02;;;;;;;25.65;10.55;;;13.70;99.90;;;;;;5019441;28;20125;-75
2023/05/15 03:37:30;;;;;;;29.33;10.98;;;13.80;99.90;;;;;;5016964;28;20424;-77
2023/05/15 03:39:58;;;;;;;28.25;9.77;;;13.80;99.90;;;;;;5017843;28;20041;-74
2023/05/15 03:42:26;;;;;;;25.08;8.70;;;13.80;99.90;;;;;;5018745;28;20056;-76
2023/05/15 03:44:54;;;;;;;19.98;8.13;;;13.80;99.90;;;;;;5016953;28;20114;-77
2023/05/15 03:47:22;;;;;;;25.55;9.30;;;13.80;99.90;;;;;;5033527;28;20137;-75
2023/05/15 03:49:53;;;;;;;24.02;9.75;;;13.80;99.90;;;;;;5017973;28;20077;-77
2023/05/15 03:52:20;;;;;;;24.05;10.02;;;13.80;99.90;;;;;;5015912;28;20136;-77
2023/05/15 03:54:50;;;;;;;21.50;9.35;;;13.80;99.90;;;;;;5019214;28;20084;-77
2023/05/15 03:57:18;;;;;;;16.90;7.90;;;13.80;99.90;;;;;;5017289;28;20530;-78
2023/05/15 03:59:46;;;;;;;21.52;7.75;;;13.80;99.90;;;;;;5017382;28;20042;-78
2023/05/15 04:02:13;;;;;;;17.63;8.32;;;13.80;99.90;;;;;;5023453;28;20048;-78
2023/05/15 04:04:43;;;;;;;22.60;10.80;;;13.70;99.90;;;;;;5038535;28;20124;-77
2023/05/15 04:07:10;;;;;;;19.80;8.77;;;13.70;99.90;;;;;;5040173;28;20049;-77
2023/05/15 04:09:38;;;;;;;22.35;9.60;;;13.70;99.90;;;;;;5039114;28;20042;-78
2023/05/15 04:12:07;;;;;;;21.15;8.23;;;13.60;99.90;;;;;;5037281;28;20044;-76
2023/05/15 04:14:34;;;;;;;38.88;13.15;;;13.70;99.90;;;;;;5038700;28;20041;-77
2023/05/15 04:17:02;;;;;;;34.35;13.43;;;13.70;99.90;;;;;;5037375;28;20053;-77
2023/05/15 04:19:30;;;;;;;38.67;13.43;;;13.60;99.90;;;;;;5039606;28;20041;-75
2023/05/15 04:21:57;;;;;;;46.65;14.75;;;13.60;99.90;;;;;;5040107;28;20036;-78
2023/05/15 04:24:25;;;;;;;50.72;17.42;;;13.70;99.90;;;;;;5041253;28;20072;-78
2023/05/15 04:26:52;;;;;;;59.35;18.10;;;13.70;99.90;;;;;;5041294;28;20045;-74
2023/05/15 04:29:21;;;;;;;52.83;16.20;;;13.70;99.90;;;;;;5042269;28;20065;-76
2023/05/15 04:31:48;;;;;;;41.20;15.23;;;13.80;99.90;;;;;;5040291;28;20048;-76
2023/05/15 04:34:16;;;;;;;35.78;13.73;;;13.80;99.90;;;;;;5042112;28;20512;-76
2023/05/15 04:36:43;;;;;;;34.53;13.65;;;13.80;99.90;;;;;;5040941;28;20060;-74
2023/05/15 04:39:11;;;;;;;35.85;13.10;;;13.80;99.90;;;;;;5042532;28;20058;-75
2023/05/15 04:41:38;;;;;;;31.48;13.30;;;13.80;99.90;;;;;;5045830;28;20116;-76
2023/05/15 04:44:07;;;;;;;29.67;12.85;;;13.80;99.90;;;;;;5046854;28;20041;-77
2023/05/15 04:46:36;;;;;;;25.83;12.02;;;13.70;99.90;;;;;;5043196;28;20045;-76
2023/05/15 04:49:03;;;;;;;23.98;10.68;;;13.70;99.90;;;;;;5040316;28;20135;-74
2023/05/15 04:51:31;;;;;;;22.15;10.40;;;13.80;99.90;;;;;;5042301;28;20132;-75
2023/05/15 04:53:58;;;;;;;15.82;8.43;;;13.80;99.90;;;;;;5041179;28;20463;-77
2023/05/15 04:56:25;;;;;;;16.90;10.05;;;13.80;99.90;;;;;;5041674;28;20037;-77
2023/05/15 04:58:53;;;;;;;14.95;8.25;;;13.80;99.90;;;;;;5040530;28;20129;-78
2023/05/15 05:01:20;;;;;;;15.95;8.70;;;13.70;99.90;;;;;;5039816;28;20053;-77
2023/05/15 05:03:49;;;;;;;17.52;8.55;;;13.70;99.90;;;;;;5039728;28;20362;-78
2023/05/15 05:06:16;;;;;;;14.93;6.80;;;13.70;99.90;;;;;;5039764;28;20132;-76
2023/05/15 05:08:44;;;;;;;10.43;6.15;;;13.70;99.90;;;;;;5041549;28;20044;-77
2023/05/15 05:11:11;;;;;;;9.18;4.15;;;13.70;99.90;;;;;;5038431;28;20041;-75
2023/05/15 05:13:39;;;;;;;5.90;3.80;;;13.60;99.90;;;;;;5040552;28;20039;-75
2023/05/15 05:16:07;;;;;;;5.60;3.22;;;13.60;99.90;;;;;;5021731;28;20075;-76
2023/05/15 05:18:34;;;;;;;11.07;3.20;;;13.50;99.90;;;;;;5040283;28;20053;-77
2023/05/15 05:21:04;;;;;;;6.85;3.45;;;13.50;99.90;;;;;;5042146;28;20035;-77
2023/05/15 05:23:31;;;;;;;9.23;3.53;;;13.50;99.90;;;;;;5040261;28;20060;-78
2023/05/15 05:25:59;;;;;;;8.27;6.10;;;13.50;99.90;;;;;;5040260;28;20136;-75
2023/05/15 05:28:27;;;;;;;4.72;2.92;;;13.50;99.90;;;;;;5040892;28;20041;-75
2023/05/15 05:30:54;;;;;;;7.07;4.95;;;13.40;99.90;;;;;;5052407;28;20045;-74
2023/05/15 05:33:22;;;;;;;7.90;5.38;;;13.50;99.90;;;;;;5059145;28;20087;-73
2023/05/15 05:35:50;;;;;;;5.65;4.10;;;13.50;99.90;;;;;;5047034;28;20489;-74
2023/05/15 05:38:19;;;;;;;5.25;3.72;;;13.50;99.90;;;;;;5041222;28;20052;-74
2023/05/15 05:40:46;;;;;;;4.18;3.67;;;13.60;99.90;;;;;;5041766;28;20489;-75
2023/05/15 05:43:14;;;;;;;5.10;4.00;;;13.60;99.90;;;;;;5041835;28;20084;-75
2023/05/15 05:45:41;;;;;;;4.05;2.90;;;13.60;99.90;;;;;;5040775;28;20052;-74
2023/05/15 05:48:09;;;;;;;8.77;6.57;;;13.50;99.90;;;;;;5045906;28;20045;-73
2023/05/15 05:50:36;;;;;;;4.88;2.78;;;13.60;99.90;;;;;;5042687;28;20055;-75
2023/05/15 05:53:03;;;;;;;4.55;3.38;;;13.60;99.90;;;;;;5041829;28;20038;-74
2023/05/15 05:55:32;;;;;;;7.03;3.72;;;13.60;99.90;;;;;;5041785;28;20065;-74
2023/05/15 05:58:00;;;;;;;5.75;3.50;;;13.60;99.90;;;;;;5038480;28;20045;-76
2023/05/15 06:00:27;;;;;;;9.80;6.65;;;13.70;99.90;;;;;;5041447;28;20051;-74
2023/05/15 06:02:57;;;;;;;5.78;4.20;;;13.80;99.90;;;;;;5038491;28;20049;-74
2023/05/15 06:05:24;;;;;;;5.40;4.00;;;13.90;99.90;;;;;;5040131;28;20033;-74
2023/05/15 06:07:52;;;;;;;16.10;13.48;;;13.90;99.90;;;;;;5021965;28;20445;-74
2023/05/15 06:10:20;;;;;;;15.38;12.43;;;13.80;99.90;;;;;;5039760;28;20119;-74
2023/05/15 06:12:49;;;;;;;14.68;10.30;;;13.90;99.90;;;;;;5039865;28;20556;-74
2023/05/15 06:15:17;;;;;;;5.03;3.85;;;14.10;99.90;;;;;;5039524;28;20402;-74
2023/05/15 06:17:44;;;;;;;8.13;3.75;;;14.20;99.90;;;;;;5040944;28;20040;-75
2023/05/15 06:20:13;;;;;;;6.60;3.72;;;14.30;99.90;;;;;;5039259;28;20049;-75
2023/05/15 06:22:40;;;;;;;4.47;2.97;;;14.30;99.90;;;;;;5041598;28;20083;-78
2023/05/15 06:25:12;;;;;;;4.13;2.88;;;14.20;99.90;;;;;;5038801;28;20985;-75
2023/05/15 06:27:40;;;;;;;4.03;2.50;;;14.20;99.90;;;;;;5040904;28;20051;-75
2023/05/15 06:30:10;;;;;;;4.55;3.10;;;14.30;99.90;;;;;;5040773;28;21086;-79
2023/05/15 06:32:38;;;;;;;5.43;4.00;;;14.50;99.90;;;;;;5040581;28;20072;-78
2023/05/15 06:35:06;;;;;;;10.85;6.97;;;14.50;99.90;;;;;;5040263;28;20038;-75
2023/05/15 06:37:33;;;;;;;5.53;4.10;;;14.70;99.90;;;;;;5041039;28;20041;-76
2023/05/15 06:40:01;;;;;;;5.80;2.88;;;14.70;99.90;;;;;;5019640;28;20433;-75
2023/05/15 06:42:29;;;;;;;20.50;4.75;;;14.60;99.90;;;;;;5041629;28;20109;-75
2023/05/15 06:44:58;;;;;;;5.30;3.83;;;14.60;99.90;;;;;;5038604;28;20037;-77
2023/05/15 06:47:28;;;;;;;4.50;3.40;;;14.80;99.90;;;;;;5040598;28;20084;-76
2023/05/15 06:49:55;;;;;;;5.38;3.08;;;15.00;99.90;;;;;;5039513;28;20052;-77
2023/05/15 06:52:23;;;;;;;4.85;3.63;;;15.10;99.90;;;;;;5039747;28;20049;-77
2023/05/15 06:54:50;;;;;;;5.75;4.78;;;15.20;99.90;;;;;;5039023;28;20048;-78
2023/05/15 06:57:18;;;;;;;5.80;3.47;;;15.20;99.90;;;;;;5039823;28;20114;-80
2023/05/15 06:59:45;;;;;;;5.18;2.80;;;15.40;99.90;;;;;;5039273;28;20042;-77
2023/05/15 07:02:13;;;;;;;4.72;2.25;;;15.40;99.90;;;;;;5037556;28;20057;-76
2023/05/15 07:04:42;;;;;;;4.50;3.30;;;15.50;99.90;;;;;;5039397;28;20383;-75
2023/05/15 07:07:09;;;;;;;7.20;4.13;;;15.60;99.90;;;;;;5036467;28;20068;-78
2023/05/15 07:09:36;;;;;;;4.50;3.03;;;15.80;99.90;;;;;;5039906;28;20037;-78
2023/05/15 07:12:04;;;;;;;5.20;3.70;;;15.90;99.90;;;;;;5037765;28;20045;-78
2023/05/15 07:14:32;;;;;;;6.55;5.25;;;16.00;99.90;;;;;;5039480;28;20037;-78
2023/05/15 07:17:00;;;;;;;17.35;13.68;;;16.30;99.90;;;;;;5037347;28;20115;-76
2023/05/15 07:19:27;;;;;;;5.10;3.40;;;16.40;99.90;;;;;;5036059;28;20048;-78
2023/05/15 07:21:56;;;;;;;8.95;6.88;;;16.70;99.90;;;;;;5038919;28;20131;-79
2023/05/15 07:24:24;;;;;;;6.30;3.47;;;16.80;99.90;;;;;;5039162;28;20049;-73
2023/05/15 07:26:51;;;;;;;4.60;2.88;;;17.00;99.90;;;;;;5038206;28;20065;-75
2023/05/15 07:29:18;;;;;;;5.20;2.92;;;17.10;99.90;;;;;;5039980;28;20041;-76
2023/05/15 07:31:46;;;;;;;4.63;2.90;;;17.20;99.90;;;;;;5038888;28;20102;-77
2023/05/15 07:34:13;;;;;;;13.73;9.88;;;17.50;99.90;;;;;;5038480;28;20505;-76
2023/05/15 07:36:40;;;;;;;6.03;4.03;;;17.90;99.90;;;;;;5020447;28;20045;-76
2023/05/15 07:39:09;;;;;;;3.90;2.95;;;18.10;99.90;;;;;;5037477;28;20049;-75
2023/05/15 07:41:37;;;;;;;6.97;3.92;;;18.30;99.90;;;;;;5039716;28;20041;-76
2023/05/15 07:44:06;;;;;;;4.35;2.58;;;18.00;99.90;;;;;;5037063;28;20128;-76
2023/05/15 07:46:33;;;;;;;3.90;2.45;;;18.30;99.90;;;;;;5038354;28;20053;-75
2023/05/15 07:49:00;;;;;;;4.25;2.10;;;18.30;99.90;;;;;;5036047;28;20042;-76
2023/05/15 07:51:28;;;;;;;3.38;2.10;;;18.30;99.90;;;;;;5037893;28;20052;-77
2023/05/15 07:53:55;;;;;;;4.50;2.08;;;18.40;99.90;;;;;;5041701;28;20041;-75
2023/05/15 07:56:25;;;;;;;3.50;2.55;;;18.60;99.90;;;;;;5042546;28;20489;-76
2023/05/15 07:58:53;;;;;;;3.90;2.20;;;18.70;99.90;;;;;;5041027;28;20047;-76
2023/05/15 08:01:20;;;;;;;2.88;1.73;;;18.80;99.90;;;;;;5042059;28;20440;-75
2023/05/15 08:03:47;;;;;;;3.05;2.03;;;18.60;99.90;;;;;;5041202;28;20083;-77
2023/05/15 08:06:15;;;;;;;3.75;2.83;;;18.70;99.90;;;;;;5040782;28;20049;-76
2023/05/15 08:08:43;;;;;;;7.43;4.82;;;18.70;99.90;;;;;;5046205;23;20084;-76
2023/05/15 08:11:10;;;;;;;5.60;2.70;;;18.90;99.90;;;;;;5020722;28;20041;-76
2023/05/15 08:13:39;;;;;;;4.13;2.47;;;19.00;99.90;;;;;;5001491;28;20042;-75
2023/05/15 08:16:06;;;;;;;4.38;2.20;;;19.10;99.90;;;;;;5002999;28;20045;-75
2023/05/15 08:18:34;;;;;;;3.65;2.50;;;19.10;99.90;;;;;;5001572;28;20411;-75
2023/05/15 08:21:01;;;;;;;3.95;2.40;;;19.20;99.90;;;;;;5003140;28;20136;-74
2023/05/15 08:23:29;;;;;;;4.13;2.60;;;19.20;99.90;;;;;;5001430;28;20052;-75
2023/05/15 08:25:56;;;;;;;3.80;2.35;;;19.20;99.90;;;;;;5001865;28;20406;-75
2023/05/15 08:28:24;;;;;;;4.70;2.80;;;19.30;99.90;;;;;;5002108;28;20042;-75
2023/05/15 08:30:53;;;;;;;3.17;1.83;;;19.30;99.90;;;;;;5001437;28;20482;-75
2023/05/15 08:33:20;;;;;;;2.53;1.52;;;19.40;99.90;;;;;;5002040;28;20053;-75
2023/05/15 08:35:49;;;;;;;2.70;1.70;;;19.40;99.90;;;;;;5002674;28;20096;-77
2023/05/15 08:38:16;;;;;;;6.03;4.45;;;19.50;99.90;;;;;;5001322;28;20053;-75
2023/05/15 08:40:47;;;;;;;4.07;1.90;;;19.30;99.90;;;;;;5002462;28;20050;-75
2023/05/15 08:43:17;;;;;;;2.55;1.42;;;19.40;99.90;;;;;;4999771;28;20045;-75
2023/05/15 08:45:45;;;;;;;4.75;2.10;;;19.40;99.90;;;;;;5002325;28;20047;-75
2023/05/15 08:48:18;;;;;;;3.45;2.28;;;19.60;99.90;;;;;;5001281;28;20049;-76
2023/05/15 08:50:46;;;;;;;4.03;2.38;;;19.50;99.90;;;;;;5001639;28;20038;-76
2023/05/15 08:53:14;;;;;;;2.60;1.55;;;19.10;99.90;;;;;;5000174;28;20472;-76
2023/05/15 08:55:42;;;;;;;4.20;2.83;;;18.80;99.90;;;;;;5001434;28;20087;-76
2023/05/15 08:58:10;;;;;;;2.30;1.30;;;18.60;99.90;;;;;;5001149;28;20120;-76
2023/05/15 09:00:38;;;;;;;2.60;1.60;;;18.40;99.90;;;;;;5001717;28;20719;-75
2023/05/15 09:03:06;;;;;;;4.60;2.47;;;18.30;99.90;;;;;;5001198;28;20113;-76
2023/05/15 09:05:35;;;;;;;3.83;1.75;;;18.20;99.90;;;;;;5000824;28;20046;-76
2023/05/15 09:08:06;;;;;;;4.63;2.95;;;18.20;99.90;;;;;;5000461;28;20054;-75
2023/05/15 09:10:35;;;;;;;7.15;3.50;;;18.00;99.90;;;;;;5001440;28;20038;-75
2023/05/15 09:13:03;;;;;;;4.10;2.08;;;17.90;99.90;;;;;;5001407;28;20042;-75
2023/05/15 09:15:31;;;;;;;2.92;1.75;;;17.80;99.90;;;;;;5001430;28;20054;-74
2023/05/15 09:17:59;;;;;;;3.40;1.35;;;17.60;99.90;;;;;;5000796;28;20125;-75
2023/05/15 09:20:31;;;;;;;5.28;2.90;;;17.60;99.90;;;;;;5001203;28;20049;-77
2023/05/15 09:23:02;;;;;;;4.22;1.85;;;17.50;99.90;;;;;;5000270;28;20044;-76
2023/05/15 09:25:36;;;;;;;5.30;2.40;;;17.60;99.90;;;;;;5000976;28;20053;-76
2023/05/15 09:28:04;;;;;;;3.30;1.98;;;17.60;99.90;;;;;;5001221;28;20543;-75
2023/05/15 09:30:33;;;;;;;3.38;1.83;;;17.70;99.90;;;;;;5000837;28;20068;-75
2023/05/15 09:33:03;;;;;;;5.65;3.50;;;17.60;99.90;;;;;;5000705;28;20046;-75
2023/05/15 09:35:35;;;;;;;6.20;3.50;;;17.70;99.90;;;;;;5001256;28;20097;-76
2023/05/15 09:38:10;;;;;;;6.82;4.50;;;17.70;99.90;;;;;;4999832;28;20506;-75
2023/05/15 09:40:39;;;;;;;13.13;9.80;;;17.70;99.90;;;;;;5000088;28;20748;-74
2023/05/15 09:43:07;;;;;;;4.72;3.15;;;17.80;99.90;;;;;;5001232;28;20092;-76
2023/05/15 09:45:34;;;;;;;5.20;3.35;;;17.80;99.90;;;;;;4999262;28;20042;-76
2023/05/15 09:48:05;;;;;;;8.65;5.30;;;17.60;99.90;;;;;;4999224;28;20407;-76
2023/05/15 09:50:34;;;;;;;7.05;2.90;;;17.50;99.90;;;;;;4999422;28;20042;-74
2023/05/15 09:53:04;;;;;;;4.45;2.35;;;17.70;99.90;;;;;;4997418;28;20054;-75
2023/05/15 09:55:33;;;;;;;5.15;2.95;;;17.80;99.90;;;;;;4999591;28;20058;-75
2023/05/15 09:58:08;;;;;;;4.35;2.58;;;18.00;99.90;;;;;;4999818;28;20093;-75
2023/05/15 10:00:35;;;;;;;5.37;2.10;;;18.20;99.90;;;;;;4998030;28;20557;-75
2023/05/15 10:03:04;;;;;;;5.30;2.67;;;18.40;99.90;;;;;;4999074;28;20782;-76
2023/05/15 10:05:31;;;;;;;4.18;2.60;;;18.50;99.90;;;;;;5000979;28;20038;-75
2023/05/15 10:08:00;;;;;;;3.47;2.13;;;18.50;99.90;;;;;;4997494;28;20124;-75
2023/05/15 10:10:29;;;;;;;3.00;1.52;;;18.60;99.90;;;;;;4998907;28;20069;-76
2023/05/15 10:13:00;;;;;;;3.60;1.73;;;18.50;99.90;;;;;;5000238;28;20057;-75
2023/05/15 10:15:28;;;;;;;3.55;1.75;;;18.60;99.90;;;;;;4999108;28;20068;-75
2023/05/15 10:17:56;;;;;;;2.58;1.13;;;18.70;99.90;;;;;;4998624;28;20065;-75
2023/05/15 10:20:30;;;;;;;4.95;2.85;;;18.70;99.90;;;;;;5000642;28;20073;-75
2023/05/15 10:22:59;;;;;;;3.60;1.77;;;18.70;99.90;;;;;;4999433;28;20101;-76
2023/05/15 10:25:39;;;;;;;1.88;0.90;;;18.70;99.90;;;;;;4999923;28;20494;-75
2023/05/15 10:28:09;;;;;;;1.50;0.90;;;18.70;99.90;;;;;;4992136;28;20457;-74
2023/05/15 10:30:37;;;;;;;2.67;1.02;;;18.70;99.90;;;;;;4999874;28;20613;-76
2023/05/15 10:33:06;;;;;;;2.53;1.20;;;18.60;99.90;;;;;;4999126;28;20042;-75
2023/05/15 10:35:35;;;;;;;3.60;1.70;;;18.70;99.90;;;;;;4999845;28;20043;-75
2023/05/15 10:38:04;;;;;;;11.68;2.00;;;18.90;99.90;;;;;;4999867;28;20073;-75
2023/05/15 10:40:36;;;;;;;3.10;1.20;;;19.10;99.90;;;;;;4999346;28;20093;-76
2023/05/15 10:43:05;;;;;;;2.75;1.52;;;19.20;99.90;;;;;;4998205;28;20503;-75
2023/05/15 10:45:33;;;;;;;3.30;1.40;;;19.50;99.90;;;;;;4997735;28;20231;-74
2023/05/15 10:48:01;;;;;;;2.90;1.85;;;19.80;99.90;;;;;;5000074;28;20045;-74
2023/05/15 10:50:29;;;;;;;4.88;1.92;;;20.00;99.90;;;;;;4995883;28;20046;-76
2023/05/15 10:52:57;;;;;;;4.18;1.45;;;20.20;99.90;;;;;;4999718;28;20141;-75
2023/05/15 10:55:24;;;;;;;6.18;3.05;;;20.20;99.90;;;;;;4999311;28;20473;-76
2023/05/15 10:57:53;;;;;;;4.00;1.00;;;20.00;99.90;;;;;;4998759;28;20054;-75
2023/05/15 11:00:30;;;;;;;3.88;1.70;;;20.00;99.90;;;;;;4999269;28;20049;-76
2023/05/15 11:02:58;;;;;;;2.88;1.58;;;19.80;99.90;;;;;;4999034;28;20053;-74
2023/05/15 11:05:26;;;;;;;3.00;1.80;;;19.70;99.90;;;;;;4999782;28;20049;-75
2023/05/15 11:08:26;;;;;;;3.70;2.30;;;19.70;99.90;;;;;;4997689;28;20499;-75
2023/05/15 11:10:54;;;;;;;4.18;1.55;;;19.90;99.90;;;;;;4998649;28;20121;-75
2023/05/15 11:13:23;;;;;;;2.40;1.48;;;20.10;99.90;;;;;;4999426;28;20105;-75
2023/05/15 11:15:51;;;;;;;2.97;1.65;;;20.20;99.90;;;;;;4997958;28;20054;-75
2023/05/15 11:18:20;;;;;;;5.40;2.40;;;20.20;99.90;;;;;;4998669;28;20150;-74
2023/05/15 11:21:07;;;;;;;3.95;2.30;;;20.30;99.90;;;;;;4997942;28;20093;-75
2023/05/15 11:23:41;;;;;;;3.53;1.52;;;20.50;99.90;;;;;;5013892;28;20069;-77
2023/05/15 11:26:09;;;;;;;5.55;1.90;;;20.60;99.90;;;;;;5023635;28;20072;-76
2023/05/15 11:28:45;;;;;;;10.25;4.78;;;20.70;99.90;;;;;;5004062;28;20050;-75
2023/05/15 11:31:14;;;;;;;4.97;2.20;;;20.70;99.90;;;;;;5002623;28;20046;-74
2023/05/15 11:33:41;;;;;;;9.05;4.60;;;20.70;99.90;;;;;;4999066;28;20054;-74
2023/05/15 11:36:10;;;;;;;8.00;3.20;;;20.70;99.90;;;;;;4998287;28;20121;-76
2023/05/15 11:38:39;;;;;;;6.30;3.40;;;20.60;99.90;;;;;;4997095;28;20319;-76
2023/05/15 11:41:20;;;;;;;10.65;7.57;;;20.40;99.90;;;;;;4999424;28;20038;-75
2023/05/15 11:43:50;;;;;;;7.63;4.97;;;20.20;99.90;;;;;;4997957;28;20039;-76
2023/05/15 11:46:17;;;;;;;9.65;7.43;;;19.90;99.90;;;;;;4999476;28;20505;-76
2023/05/15 11:48:47;;;;;;;9.73;5.40;;;19.80;99.90;;;;;;4997323;28;20034;-76
2023/05/15 11:51:20;;;;;;;4.85;2.10;;;19.80;99.90;;;;;;4998361;28;20617;-75
2023/05/15 11:53:49;;;;;;;7.38;3.22;;;19.80;99.90;;;;;;4999651;28;20591;-76
2023/05/15 11:56:18;;;;;;;5.88;3.92;;;19.70;99.90;;;;;;4999494;28;20054;-76
2023/05/15 11:58:50;;;;;;;13.25;8.40;;;19.60;99.90;;;;;;4997667;28;20548;-75
2023/05/15 12:01:17;;;;;;;5.20;2.60;;;19.60;99.90;;;;;;4998474;28;20038;-75
2023/05/15 12:03:47;;;;;;;6.00;2.83;;;19.30;99.90;;;;;;4998531;28;20042;-76
2023/05/15 12:06:15;;;;;;;7.05;3.65;;;19.20;99.90;;;;;;4998666;28;20050;-76
2023/05/15 12:08:43;;;;;;;7.38;3.13;;;19.00;99.90;;;;;;4998279;28;20457;-75
2023/05/15 12:11:10;;;;;;;5.40;2.30;;;19.00;99.90;;;;;;4997075;28;20045;-76
2023/05/15 12:13:38;;;;;;;7.53;3.58;;;19.00;99.90;;;;;;4998731;28;20043;-76
2023/05/15 12:16:07;;;;;;;4.32;3.00;;;18.90;99.90;;;;;;4999163;28;20049;-76
2023/05/15 12:18:34;;;;;;;3.83;2.50;;;18.90;99.90;;;;;;4997068;28;20156;-76
2023/05/15 12:21:04;;;;;;;3.45;1.92;;;18.90;99.90;;;;;;4998842;28;20060;-75
2023/05/15 12:23:32;;;;;;;7.95;3.45;;;18.90;99.90;;;;;;4997857;28;20042;-76
2023/05/15 12:26:02;;;;;;;6.15;3.97;;;18.90;99.90;;;;;;4996465;28;20046;-77
2023/05/15 12:28:34;;;;;;;4.90;2.90;;;18.80;99.90;;;;;;4997975;28;20046;-75
2023/05/15 12:31:02;;;;;;;5.45;3.00;;;18.80;99.90;;;;;;4997041;28;20045;-76
2023/05/15 12:33:31;;;;;;;4.35;2.30;;;18.70;99.90;;;;;;4999001;28;20076;-76
2023/05/15 12:35:59;;;;;;;3.65;1.75;;;18.70;99.90;;;;;;4998039;28;20572;-76
2023/05/15 12:38:27;;;;;;;4.57;2.53;;;18.70;99.90;;;;;;4999572;28;20038;-76
2023/05/15 12:40:55;;;;;;;6.13;2.30;;;18.70;99.90;;;;;;5001356;28;20173;-74
2023/05/15 12:43:25;;;;;;;4.97;2.58;;;18.70;99.90;;;;;;5000720;28;20062;-75
2023/05/15 12:45:53;;;;;;;4.32;3.00;;;18.50;99.90;;;;;;5003590;28;20065;-74
2023/05/15 12:48:21;;;;;;;10.18;6.57;;;18.40;99.90;;;;;;5006899;28;20411;-75
2023/05/15 12:50:50;;;;;;;5.03;2.90;;;18.30;99.90;;;;;;5001414;28;20056;-75